sensor_id;sensor_type;location;lat;lon;timestamp;P1;durP1;ratioP1;P2;durP2;ratioP2
20443;SDS011;10381;53.730;10.010;2022-08-11T00:03:11;7.60;;;5.63;;
20443;SDS011;10381;53.730;10.010;2022-08-11T00:07:13;10.25;;;5.65;;
20443;SDS011;10381;53.730;10.010;2022-08-11T00:11:13;8.48;;;5.82;;
20443;SDS011;10381;53.730;10.010;2022-08-11T00:15:16;6.63;;;5.47;;
20443;SDS011;10381;53.730;10.010;2022-08-11T00:19:26;5.45;;;4.95;;
20443;SDS011;10381;53.730;10.010;2022-08-11T00:23:29;8.35;;;5.78;;
20443;SDS011;10381;53.730;10.010;2022-08-11T00:27:33;6.15;;;5.18;;
20443;SDS011;10381;53.730;10.010;2022-08-11T00:31:35;6.90;;;5.70;;
20443;SDS011;10381;53.730;10.010;2022-08-11T00:35:36;6.82;;;5.70;;
20443;SDS011;10381;53.730;10.010;2022-08-11T00:39:55;9.18;;;5.57;;
20443;SDS011;10381;53.730;10.010;2022-08-11T00:44:19;8.55;;;6.05;;
20443;SDS011;10381;53.730;10.010;2022-08-11T00:48:28;8.45;;;6.05;;
20443;SDS011;10381;53.730;10.010;2022-08-11T00:57:11;10.30;;;6.60;;
20443;SDS011;10381;53.730;10.010;2022-08-11T01:01:54;19.67;;;6.28;;
20443;SDS011;10381;53.730;10.010;2022-08-11T01:36:35;6.93;;;6.05;;
20443;SDS011;10381;53.730;10.010;2022-08-11T01:41:04;9.27;;;6.28;;
20443;SDS011;10381;53.730;10.010;2022-08-11T01:49:43;8.60;;;6.13;;
20443;SDS011;10381;53.730;10.010;2022-08-11T01:54:08;8.70;;;7.00;;
20443;SDS011;10381;53.730;10.010;2022-08-11T01:58:28;8.80;;;6.25;;
20443;SDS011;10381;53.730;10.010;2022-08-11T02:02:40;8.63;;;6.45;;
20443;SDS011;10381;53.730;10.010;2022-08-11T02:07:01;6.72;;;6.00;;
20443;SDS011;10381;53.730;10.010;2022-08-11T02:15:34;9.75;;;7.00;;
20443;SDS011;10381;53.730;10.010;2022-08-11T02:24:03;14.10;;;6.97;;
20443;SDS011;10381;53.730;10.010;2022-08-11T02:28:18;11.20;;;6.78;;
20443;SDS011;10381;53.730;10.010;2022-08-11T02:32:32;10.80;;;7.53;;
20443;SDS011;10381;53.730;10.010;2022-08-11T02:37:41;8.55;;;7.13;;
20443;SDS011;10381;53.730;10.010;2022-08-11T02:46:15;8.82;;;6.70;;
20443;SDS011;10381;53.730;10.010;2022-08-11T02:50:20;10.35;;;7.50;;
20443;SDS011;10381;53.730;10.010;2022-08-11T02:54:31;10.57;;;7.45;;
20443;SDS011;10381;53.730;10.010;2022-08-11T02:59:36;12.05;;;8.18;;
20443;SDS011;10381;53.730;10.010;2022-08-11T03:03:43;13.00;;;8.10;;
20443;SDS011;10381;53.730;10.010;2022-08-11T03:08:00;14.80;;;7.53;;
20443;SDS011;10381;53.730;10.010;2022-08-11T03:12:08;11.90;;;8.18;;
20443;SDS011;10381;53.730;10.010;2022-08-11T03:16:37;13.23;;;8.77;;
20443;SDS011;10381;53.730;10.010;2022-08-11T03:20:48;12.90;;;7.05;;
20443;SDS011;10381;53.730;10.010;2022-08-11T03:33:37;10.13;;;8.40;;
20443;SDS011;10381;53.730;10.010;2022-08-11T03:38:02;9.35;;;7.65;;
20443;SDS011;10381;53.730;10.010;2022-08-11T03:42:26;11.30;;;7.25;;
20443;SDS011;10381;53.730;10.010;2022-08-11T03:51:22;15.43;;;9.35;;
20443;SDS011;10381;53.730;10.010;2022-08-11T04:08:41;15.52;;;8.90;;
20443;SDS011;10381;53.730;10.010;2022-08-11T04:13:12;16.95;;;9.23;;
20443;SDS011;10381;53.730;10.010;2022-08-11T04:17:45;13.50;;;8.57;;
20443;SDS011;10381;53.730;10.010;2022-08-11T04:22:16;14.15;;;8.73;;
20443;SDS011;10381;53.730;10.010;2022-08-11T04:35:57;14.75;;;10.52;;
20443;SDS011;10381;53.730;10.010;2022-08-11T04:45:24;11.02;;;7.65;;
20443;SDS011;10381;53.730;10.010;2022-08-11T04:50:00;9.88;;;6.20;;
20443;SDS011;10381;53.730;10.010;2022-08-11T05:04:07;7.78;;;5.93;;
20443;SDS011;10381;53.730;10.010;2022-08-11T05:08:53;10.55;;;5.35;;
20443;SDS011;10381;53.730;10.010;2022-08-11T05:13:02;7.15;;;5.22;;
20443;SDS011;10381;53.730;10.010;2022-08-11T05:17:26;12.25;;;5.45;;
20443;SDS011;10381;53.730;10.010;2022-08-11T05:21:54;6.68;;;4.97;;
20443;SDS011;10381;53.730;10.010;2022-08-11T05:26:15;5.88;;;4.47;;
20443;SDS011;10381;53.730;10.010;2022-08-11T05:30:37;8.45;;;4.50;;
20443;SDS011;10381;53.730;10.010;2022-08-11T05:35:01;6.70;;;4.43;;
20443;SDS011;10381;53.730;10.010;2022-08-11T05:39:06;5.47;;;4.30;;
20443;SDS011;10381;53.730;10.010;2022-08-11T05:43:32;6.03;;;4.53;;
20443;SDS011;10381;53.730;10.010;2022-08-11T05:47:57;18.60;;;4.60;;
20443;SDS011;10381;53.730;10.010;2022-08-11T05:52:22;9.77;;;4.53;;
20443;SDS011;10381;53.730;10.010;2022-08-11T05:56:55;8.23;;;3.97;;
20443;SDS011;10381;53.730;10.010;2022-08-11T06:00:57;6.32;;;3.85;;
20443;SDS011;10381;53.730;10.010;2022-08-11T06:04:59;7.80;;;3.88;;
20443;SDS011;10381;53.730;10.010;2022-08-11T06:09:00;4.38;;;3.75;;
20443;SDS011;10381;53.730;10.010;2022-08-11T06:13:03;7.32;;;3.95;;
20443;SDS011;10381;53.730;10.010;2022-08-11T06:17:06;5.60;;;3.85;;
20443;SDS011;10381;53.730;10.010;2022-08-11T06:21:08;5.00;;;3.60;;
20443;SDS011;10381;53.730;10.010;2022-08-11T06:25:10;6.78;;;3.88;;
20443;SDS011;10381;53.730;10.010;2022-08-11T06:29:11;4.18;;;3.78;;
20443;SDS011;10381;53.730;10.010;2022-08-11T06:33:18;6.18;;;4.20;;
20443;SDS011;10381;53.730;10.010;2022-08-11T06:46:04;5.53;;;4.38;;
20443;SDS011;10381;53.730;10.010;2022-08-11T06:50:10;5.82;;;4.20;;
20443;SDS011;10381;53.730;10.010;2022-08-11T06:54:34;4.78;;;3.95;;
20443;SDS011;10381;53.730;10.010;2022-08-11T06:58:40;8.23;;;4.25;;
20443;SDS011;10381;53.730;10.010;2022-08-11T07:03:00;21.08;;;4.28;;
20443;SDS011;10381;53.730;10.010;2022-08-11T07:07:27;6.43;;;4.25;;
20443;SDS011;10381;53.730;10.010;2022-08-11T07:16:43;5.68;;;4.15;;
20443;SDS011;10381;53.730;10.010;2022-08-11T07:20:47;7.03;;;4.10;;
20443;SDS011;10381;53.730;10.010;2022-08-11T07:25:09;5.53;;;4.03;;
20443;SDS011;10381;53.730;10.010;2022-08-11T07:29:31;4.53;;;4.10;;
20443;SDS011;10381;53.730;10.010;2022-08-11T07:33:40;7.75;;;3.90;;
20443;SDS011;10381;53.730;10.010;2022-08-11T07:37:47;5.00;;;4.60;;
20443;SDS011;10381;53.730;10.010;2022-08-11T07:41:54;5.25;;;4.32;;
20443;SDS011;10381;53.730;10.010;2022-08-11T07:45:56;6.93;;;4.13;;
20443;SDS011;10381;53.730;10.010;2022-08-11T07:50:15;5.07;;;4.32;;
20443;SDS011;10381;53.730;10.010;2022-08-11T07:54:35;4.63;;;4.22;;
20443;SDS011;10381;53.730;10.010;2022-08-11T07:58:37;6.07;;;4.10;;
20443;SDS011;10381;53.730;10.010;2022-08-11T08:02:57;10.27;;;4.40;;
20443;SDS011;10381;53.730;10.010;2022-08-11T08:07:20;6.22;;;4.70;;
20443;SDS011;10381;53.730;10.010;2022-08-11T08:11:40;7.22;;;4.50;;
20443;SDS011;10381;53.730;10.010;2022-08-11T08:16:01;4.70;;;4.30;;
20443;SDS011;10381;53.730;10.010;2022-08-11T08:20:21;13.65;;;5.32;;
20443;SDS011;10381;53.730;10.010;2022-08-11T08:24:24;5.13;;;4.60;;
20443;SDS011;10381;53.730;10.010;2022-08-11T08:28:24;4.45;;;4.10;;
20443;SDS011;10381;53.730;10.010;2022-08-11T08:32:25;8.40;;;4.22;;
20443;SDS011;10381;53.730;10.010;2022-08-11T08:36:26;7.07;;;4.55;;
20443;SDS011;10381;53.730;10.010;2022-08-11T08:40:27;5.18;;;4.68;;
20443;SDS011;10381;53.730;10.010;2022-08-11T08:44:27;7.88;;;5.40;;
20443;SDS011;10381;53.730;10.010;2022-08-11T08:48:33;12.15;;;4.93;;
20443;SDS011;10381;53.730;10.010;2022-08-11T08:52:35;5.45;;;4.63;;
20443;SDS011;10381;53.730;10.010;2022-08-11T08:56:40;5.35;;;4.70;;
20443;SDS011;10381;53.730;10.010;2022-08-11T09:00:43;9.35;;;4.22;;
20443;SDS011;10381;53.730;10.010;2022-08-11T09:04:45;5.68;;;5.18;;
20443;SDS011;10381;53.730;10.010;2022-08-11T09:08:46;4.65;;;4.28;;
20443;SDS011;10381;53.730;10.010;2022-08-11T09:12:46;4.97;;;4.47;;
20443;SDS011;10381;53.730;10.010;2022-08-11T09:16:49;9.90;;;3.80;;
20443;SDS011;10381;53.730;10.010;2022-08-11T09:20:51;3.50;;;3.20;;
20443;SDS011;10381;53.730;10.010;2022-08-11T09:24:52;4.32;;;3.53;;
20443;SDS011;10381;53.730;10.010;2022-08-11T09:29:12;5.70;;;3.88;;
20443;SDS011;10381;53.730;10.010;2022-08-11T09:33:14;3.95;;;3.60;;
20443;SDS011;10381;53.730;10.010;2022-08-11T09:37:16;11.85;;;3.88;;
20443;SDS011;10381;53.730;10.010;2022-08-11T09:41:36;3.80;;;3.50;;
20443;SDS011;10381;53.730;10.010;2022-08-11T09:45:38;4.22;;;3.85;;
20443;SDS011;10381;53.730;10.010;2022-08-11T09:49:41;3.63;;;3.33;;
20443;SDS011;10381;53.730;10.010;2022-08-11T09:53:43;6.50;;;3.47;;
20443;SDS011;10381;53.730;10.010;2022-08-11T09:57:45;4.32;;;3.65;;
20443;SDS011;10381;53.730;10.010;2022-08-11T10:02:05;4.03;;;3.70;;
20443;SDS011;10381;53.730;10.010;2022-08-11T10:06:09;4.07;;;3.78;;
20443;SDS011;10381;53.730;10.010;2022-08-11T10:10:29;4.15;;;3.83;;
20443;SDS011;10381;53.730;10.010;2022-08-11T10:14:36;5.22;;;3.55;;
20443;SDS011;10381;53.730;10.010;2022-08-11T10:19:01;4.15;;;3.80;;
20443;SDS011;10381;53.730;10.010;2022-08-11T10:23:03;14.00;;;4.05;;
20443;SDS011;10381;53.730;10.010;2022-08-11T10:27:22;8.00;;;4.03;;
20443;SDS011;10381;53.730;10.010;2022-08-11T10:31:23;4.65;;;4.20;;
20443;SDS011;10381;53.730;10.010;2022-08-11T10:35:43;5.43;;;4.30;;
20443;SDS011;10381;53.730;10.010;2022-08-11T10:39:44;4.45;;;4.05;;
20443;SDS011;10381;53.730;10.010;2022-08-11T10:43:45;4.00;;;3.72;;
20443;SDS011;10381;53.730;10.010;2022-08-11T10:47:46;9.05;;;4.18;;
20443;SDS011;10381;53.730;10.010;2022-08-11T10:51:46;6.20;;;4.10;;
20443;SDS011;10381;53.730;10.010;2022-08-11T10:56:06;3.47;;;3.28;;
20443;SDS011;10381;53.730;10.010;2022-08-11T11:00:25;3.30;;;3.00;;
20443;SDS011;10381;53.730;10.010;2022-08-11T11:04:28;5.30;;;3.50;;
20443;SDS011;10381;53.730;10.010;2022-08-11T11:08:46;4.00;;;3.70;;
20443;SDS011;10381;53.730;10.010;2022-08-11T11:12:54;3.45;;;3.15;;
20443;SDS011;10381;53.730;10.010;2022-08-11T11:17:39;3.90;;;3.60;;
20443;SDS011;10381;53.730;10.010;2022-08-11T11:22:00;9.00;;;3.70;;
20443;SDS011;10381;53.730;10.010;2022-08-11T11:31:02;13.20;;;3.50;;
20443;SDS011;10381;53.730;10.010;2022-08-11T11:39:12;8.30;;;3.40;;
20443;SDS011;10381;53.730;10.010;2022-08-11T11:43:17;4.97;;;3.65;;
20443;SDS011;10381;53.730;10.010;2022-08-11T11:47:18;8.60;;;3.40;;
20443;SDS011;10381;53.730;10.010;2022-08-11T11:51:19;5.32;;;3.35;;
20443;SDS011;10381;53.730;10.010;2022-08-11T11:55:22;3.63;;;3.33;;
20443;SDS011;10381;53.730;10.010;2022-08-11T11:59:24;8.02;;;3.67;;
20443;SDS011;10381;53.730;10.010;2022-08-11T12:03:46;3.40;;;3.20;;
20443;SDS011;10381;53.730;10.010;2022-08-11T12:07:49;3.92;;;3.20;;
20443;SDS011;10381;53.730;10.010;2022-08-11T12:12:11;3.50;;;3.20;;
20443;SDS011;10381;53.730;10.010;2022-08-11T12:16:30;3.72;;;3.42;;
20443;SDS011;10381;53.730;10.010;2022-08-11T12:20:34;3.10;;;2.90;;
20443;SDS011;10381;53.730;10.010;2022-08-11T12:24:36;3.70;;;3.40;;
20443;SDS011;10381;53.730;10.010;2022-08-11T12:28:56;3.42;;;3.13;;
20443;SDS011;10381;53.730;10.010;2022-08-11T12:33:00;4.72;;;3.10;;
20443;SDS011;10381;53.730;10.010;2022-08-11T12:37:02;3.83;;;3.22;;
20443;SDS011;10381;53.730;10.010;2022-08-11T12:41:05;3.65;;;3.35;;
20443;SDS011;10381;53.730;10.010;2022-08-11T12:45:25;3.70;;;3.38;;
20443;SDS011;10381;53.730;10.010;2022-08-11T12:49:27;3.03;;;2.83;;
20443;SDS011;10381;53.730;10.010;2022-08-11T12:53:53;9.05;;;3.55;;
20443;SDS011;10381;53.730;10.010;2022-08-11T12:57:58;45.25;;;5.50;;
20443;SDS011;10381;53.730;10.010;2022-08-11T13:02:16;4.07;;;3.10;;
20443;SDS011;10381;53.730;10.010;2022-08-11T13:06:38;17.23;;;3.50;;
20443;SDS011;10381;53.730;10.010;2022-08-11T13:10:41;25.50;;;3.30;;
20443;SDS011;10381;53.730;10.010;2022-08-11T13:15:02;3.30;;;3.00;;
20443;SDS011;10381;53.730;10.010;2022-08-11T13:19:03;9.00;;;3.75;;
20443;SDS011;10381;53.730;10.010;2022-08-11T13:23:04;6.85;;;2.70;;
20443;SDS011;10381;53.730;10.010;2022-08-11T13:27:05;3.20;;;3.00;;
20443;SDS011;10381;53.730;10.010;2022-08-11T13:31:06;3.25;;;2.97;;
20443;SDS011;10381;53.730;10.010;2022-08-11T13:35:16;5.95;;;3.20;;
20443;SDS011;10381;53.730;10.010;2022-08-11T13:39:17;2.85;;;2.65;;
20443;SDS011;10381;53.730;10.010;2022-08-11T13:43:18;6.05;;;3.13;;
20443;SDS011;10381;53.730;10.010;2022-08-11T13:47:20;3.03;;;2.80;;
20443;SDS011;10381;53.730;10.010;2022-08-11T13:51:23;3.40;;;3.10;;
20443;SDS011;10381;53.730;10.010;2022-08-11T13:55:32;10.02;;;3.20;;
20443;SDS011;10381;53.730;10.010;2022-08-11T13:59:32;3.58;;;2.80;;
20443;SDS011;10381;53.730;10.010;2022-08-11T14:03:33;3.50;;;3.00;;
20443;SDS011;10381;53.730;10.010;2022-08-11T14:07:37;9.25;;;2.90;;
20443;SDS011;10381;53.730;10.010;2022-08-11T14:11:41;6.75;;;3.00;;
20443;SDS011;10381;53.730;10.010;2022-08-11T14:16:02;3.20;;;2.90;;
20443;SDS011;10381;53.730;10.010;2022-08-11T14:20:07;3.15;;;2.67;;
20443;SDS011;10381;53.730;10.010;2022-08-11T14:24:11;4.38;;;2.83;;
20443;SDS011;10381;53.730;10.010;2022-08-11T14:28:14;5.43;;;2.60;;
20443;SDS011;10381;53.730;10.010;2022-08-11T14:32:15;2.83;;;2.63;;
20443;SDS011;10381;53.730;10.010;2022-08-11T14:36:19;3.15;;;2.78;;
20443;SDS011;10381;53.730;10.010;2022-08-11T14:40:22;2.63;;;2.42;;
20443;SDS011;10381;53.730;10.010;2022-08-11T14:45:03;11.77;;;2.78;;
20443;SDS011;10381;53.730;10.010;2022-08-11T14:49:24;8.90;;;2.75;;
20443;SDS011;10381;53.730;10.010;2022-08-11T14:53:26;8.60;;;2.85;;
20443;SDS011;10381;53.730;10.010;2022-08-11T14:57:27;3.95;;;2.80;;
20443;SDS011;10381;53.730;10.010;2022-08-11T15:01:30;6.38;;;2.97;;
20443;SDS011;10381;53.730;10.010;2022-08-11T15:05:50;6.55;;;3.33;;
20443;SDS011;10381;53.730;10.010;2022-08-11T15:09:52;4.85;;;2.72;;
20443;SDS011;10381;53.730;10.010;2022-08-11T15:13:54;2.90;;;2.70;;
20443;SDS011;10381;53.730;10.010;2022-08-11T15:17:56;7.47;;;3.30;;
20443;SDS011;10381;53.730;10.010;2022-08-11T15:21:58;3.13;;;2.85;;
20443;SDS011;10381;53.730;10.010;2022-08-11T15:26:23;5.88;;;3.10;;
20443;SDS011;10381;53.730;10.010;2022-08-11T15:30:48;3.70;;;3.15;;
20443;SDS011;10381;53.730;10.010;2022-08-11T15:35:10;3.58;;;3.08;;
20443;SDS011;10381;53.730;10.010;2022-08-11T15:39:40;2.75;;;2.55;;
20443;SDS011;10381;53.730;10.010;2022-08-11T15:44:08;9.95;;;3.17;;
20443;SDS011;10381;53.730;10.010;2022-08-11T15:48:39;6.55;;;3.13;;
20443;SDS011;10381;53.730;10.010;2022-08-11T15:52:53;6.82;;;2.58;;
20443;SDS011;10381;53.730;10.010;2022-08-11T15:56:58;18.98;;;2.70;;
20443;SDS011;10381;53.730;10.010;2022-08-11T16:01:01;3.00;;;2.38;;
20443;SDS011;10381;53.730;10.010;2022-08-11T16:05:22;5.18;;;2.30;;
20443;SDS011;10381;53.730;10.010;2022-08-11T16:09:27;2.88;;;2.58;;
20443;SDS011;10381;53.730;10.010;2022-08-11T16:13:31;3.05;;;2.80;;
20443;SDS011;10381;53.730;10.010;2022-08-11T16:17:33;12.45;;;2.35;;
20443;SDS011;10381;53.730;10.010;2022-08-11T16:21:37;2.67;;;2.47;;
20443;SDS011;10381;53.730;10.010;2022-08-11T16:25:41;9.63;;;2.83;;
20443;SDS011;10381;53.730;10.010;2022-08-11T16:29:44;2.58;;;2.38;;
20443;SDS011;10381;53.730;10.010;2022-08-11T16:33:46;4.80;;;2.30;;
20443;SDS011;10381;53.730;10.010;2022-08-11T16:37:51;2.50;;;2.30;;
20443;SDS011;10381;53.730;10.010;2022-08-11T16:42:10;5.22;;;2.20;;
20443;SDS011;10381;53.730;10.010;2022-08-11T16:46:29;4.65;;;2.47;;
20443;SDS011;10381;53.730;10.010;2022-08-11T16:50:37;7.30;;;2.38;;
20443;SDS011;10381;53.730;10.010;2022-08-11T16:54:39;3.67;;;2.63;;
20443;SDS011;10381;53.730;10.010;2022-08-11T16:58:41;3.00;;;2.70;;
20443;SDS011;10381;53.730;10.010;2022-08-11T17:03:04;6.43;;;2.40;;
20443;SDS011;10381;53.730;10.010;2022-08-11T17:07:24;10.38;;;2.42;;
20443;SDS011;10381;53.730;10.010;2022-08-11T17:11:49;2.65;;;2.45;;
20443;SDS011;10381;53.730;10.010;2022-08-11T17:16:13;3.90;;;2.70;;
20443;SDS011;10381;53.730;10.010;2022-08-11T17:20:19;2.88;;;2.38;;
20443;SDS011;10381;53.730;10.010;2022-08-11T17:24:20;3.78;;;2.50;;
20443;SDS011;10381;53.730;10.010;2022-08-11T17:28:20;3.42;;;2.40;;
20443;SDS011;10381;53.730;10.010;2022-08-11T17:32:24;3.10;;;2.80;;
20443;SDS011;10381;53.730;10.010;2022-08-11T17:36:47;2.97;;;2.58;;
20443;SDS011;10381;53.730;10.010;2022-08-11T17:40:54;2.60;;;2.40;;
20443;SDS011;10381;53.730;10.010;2022-08-11T17:45:16;4.82;;;2.70;;
20443;SDS011;10381;53.730;10.010;2022-08-11T17:49:37;6.63;;;3.13;;
20443;SDS011;10381;53.730;10.010;2022-08-11T17:53:41;4.07;;;2.58;;
20443;SDS011;10381;53.730;10.010;2022-08-11T17:58:01;2.75;;;2.35;;
20443;SDS011;10381;53.730;10.010;2022-08-11T18:02:22;2.78;;;2.58;;
20443;SDS011;10381;53.730;10.010;2022-08-11T18:06:46;5.55;;;3.15;;
20443;SDS011;10381;53.730;10.010;2022-08-11T18:10:48;2.90;;;2.60;;
20443;SDS011;10381;53.730;10.010;2022-08-11T18:15:07;2.67;;;2.47;;
20443;SDS011;10381;53.730;10.010;2022-08-11T18:19:26;3.08;;;2.78;;
20443;SDS011;10381;53.730;10.010;2022-08-11T18:23:45;6.72;;;2.92;;
20443;SDS011;10381;53.730;10.010;2022-08-11T18:28:07;4.63;;;3.25;;
20443;SDS011;10381;53.730;10.010;2022-08-11T18:32:29;8.52;;;3.47;;
20443;SDS011;10381;53.730;10.010;2022-08-11T18:36:50;3.28;;;2.95;;
20443;SDS011;10381;53.730;10.010;2022-08-11T18:41:20;23.13;;;3.03;;
20443;SDS011;10381;53.730;10.010;2022-08-11T18:45:39;8.02;;;2.80;;
20443;SDS011;10381;53.730;10.010;2022-08-11T18:49:59;4.78;;;2.67;;
20443;SDS011;10381;53.730;10.010;2022-08-11T18:54:21;8.75;;;3.42;;
20443;SDS011;10381;53.730;10.010;2022-08-11T18:58:43;6.68;;;2.60;;
20443;SDS011;10381;53.730;10.010;2022-08-11T19:03:05;2.63;;;2.42;;
20443;SDS011;10381;53.730;10.010;2022-08-11T19:07:26;5.13;;;3.08;;
20443;SDS011;10381;53.730;10.010;2022-08-11T19:11:47;3.00;;;2.80;;
20443;SDS011;10381;53.730;10.010;2022-08-11T19:16:07;16.83;;;3.35;;
20443;SDS011;10381;53.730;10.010;2022-08-11T19:20:27;3.50;;;2.55;;
20443;SDS011;10381;53.730;10.010;2022-08-11T19:24:48;2.75;;;2.50;;
20443;SDS011;10381;53.730;10.010;2022-08-11T19:29:10;2.65;;;2.45;;
20443;SDS011;10381;53.730;10.010;2022-08-11T19:33:32;4.75;;;2.55;;
20443;SDS011;10381;53.730;10.010;2022-08-11T19:37:51;5.05;;;2.50;;
20443;SDS011;10381;53.730;10.010;2022-08-11T19:42:11;3.35;;;2.50;;
20443;SDS011;10381;53.730;10.010;2022-08-11T19:46:32;2.40;;;2.20;;
20443;SDS011;10381;53.730;10.010;2022-08-11T19:50:53;5.53;;;2.60;;
20443;SDS011;10381;53.730;10.010;2022-08-11T19:55:13;5.95;;;2.63;;
20443;SDS011;10381;53.730;10.010;2022-08-11T19:59:34;2.92;;;2.60;;
20443;SDS011;10381;53.730;10.010;2022-08-11T20:03:53;6.55;;;2.70;;
20443;SDS011;10381;53.730;10.010;2022-08-11T20:08:12;4.05;;;2.65;;
20443;SDS011;10381;53.730;10.010;2022-08-11T20:12:32;2.28;;;2.08;;
20443;SDS011;10381;53.730;10.010;2022-08-11T20:16:54;3.78;;;2.30;;
20443;SDS011;10381;53.730;10.010;2022-08-11T20:21:14;2.53;;;2.30;;
20443;SDS011;10381;53.730;10.010;2022-08-11T20:25:34;2.53;;;2.33;;
20443;SDS011;10381;53.730;10.010;2022-08-11T20:29:55;2.85;;;2.38;;
20443;SDS011;10381;53.730;10.010;2022-08-11T20:34:16;2.80;;;2.47;;
20443;SDS011;10381;53.730;10.010;2022-08-11T20:38:35;5.13;;;3.20;;
20443;SDS011;10381;53.730;10.010;2022-08-11T20:42:55;2.88;;;2.55;;
20443;SDS011;10381;53.730;10.010;2022-08-11T20:47:15;3.90;;;3.03;;
20443;SDS011;10381;53.730;10.010;2022-08-11T20:51:35;6.43;;;2.60;;
20443;SDS011;10381;53.730;10.010;2022-08-11T20:55:56;8.50;;;2.90;;
20443;SDS011;10381;53.730;10.010;2022-08-11T21:00:17;4.75;;;2.58;;
20443;SDS011;10381;53.730;10.010;2022-08-11T21:04:37;3.13;;;2.58;;
20443;SDS011;10381;53.730;10.010;2022-08-11T21:08:58;8.55;;;3.22;;
20443;SDS011;10381;53.730;10.010;2022-08-11T21:13:21;6.10;;;2.58;;
20443;SDS011;10381;53.730;10.010;2022-08-11T21:17:42;2.30;;;2.10;;
20443;SDS011;10381;53.730;10.010;2022-08-11T21:22:02;7.55;;;2.33;;
20443;SDS011;10381;53.730;10.010;2022-08-11T21:26:22;5.13;;;2.67;;
20443;SDS011;10381;53.730;10.010;2022-08-11T21:30:43;5.07;;;2.72;;
20443;SDS011;10381;53.730;10.010;2022-08-11T21:35:03;4.93;;;2.65;;
20443;SDS011;10381;53.730;10.010;2022-08-11T21:39:23;4.13;;;2.45;;
20443;SDS011;10381;53.730;10.010;2022-08-11T21:43:43;2.78;;;2.50;;
20443;SDS011;10381;53.730;10.010;2022-08-11T21:48:04;3.45;;;2.70;;
20443;SDS011;10381;53.730;10.010;2022-08-11T21:52:25;3.53;;;2.55;;
20443;SDS011;10381;53.730;10.010;2022-08-11T21:56:45;3.33;;;2.85;;
20443;SDS011;10381;53.730;10.010;2022-08-11T22:01:05;3.97;;;3.10;;
20443;SDS011;10381;53.730;10.010;2022-08-11T22:05:25;4.18;;;2.72;;
20443;SDS011;10381;53.730;10.010;2022-08-11T22:09:46;3.58;;;3.10;;
20443;SDS011;10381;53.730;10.010;2022-08-11T22:14:06;3.78;;;2.95;;
20443;SDS011;10381;53.730;10.010;2022-08-11T22:18:25;3.55;;;3.20;;
20443;SDS011;10381;53.730;10.010;2022-08-11T22:22:45;4.35;;;3.25;;
20443;SDS011;10381;53.730;10.010;2022-08-11T22:27:07;3.97;;;3.50;;
20443;SDS011;10381;53.730;10.010;2022-08-11T22:31:26;3.83;;;3.17;;
20443;SDS011;10381;53.730;10.010;2022-08-11T22:35:46;5.00;;;4.10;;
20443;SDS011;10381;53.730;10.010;2022-08-11T22:40:07;4.22;;;3.80;;
20443;SDS011;10381;53.730;10.010;2022-08-11T22:44:27;5.30;;;3.75;;
20443;SDS011;10381;53.730;10.010;2022-08-11T22:48:46;6.70;;;4.22;;
20443;SDS011;10381;53.730;10.010;2022-08-11T22:53:05;5.90;;;4.20;;
20443;SDS011;10381;53.730;10.010;2022-08-11T22:57:25;4.95;;;3.83;;
20443;SDS011;10381;53.730;10.010;2022-08-11T23:01:45;8.15;;;3.92;;
20443;SDS011;10381;53.730;10.010;2022-08-11T23:06:07;4.90;;;4.28;;
20443;SDS011;10381;53.730;10.010;2022-08-11T23:10:26;7.15;;;4.13;;
20443;SDS011;10381;53.730;10.010;2022-08-11T23:14:45;8.35;;;4.45;;
20443;SDS011;10381;53.730;10.010;2022-08-11T23:19:06;8.13;;;5.07;;
20443;SDS011;10381;53.730;10.010;2022-08-11T23:23:27;5.45;;;4.45;;
20443;SDS011;10381;53.730;10.010;2022-08-11T23:27:47;6.07;;;4.53;;
20443;SDS011;10381;53.730;10.010;2022-08-11T23:32:06;9.13;;;3.92;;
20443;SDS011;10381;53.730;10.010;2022-08-11T23:36:24;5.65;;;4.45;;
20443;SDS011;10381;53.730;10.010;2022-08-11T23:40:43;6.78;;;4.57;;
20443;SDS011;10381;53.730;10.010;2022-08-11T23:45:03;6.55;;;4.05;;
20443;SDS011;10381;53.730;10.010;2022-08-11T23:49:22;8.70;;;4.75;;
20443;SDS011;10381;53.730;10.010;2022-08-11T23:53:41;6.68;;;4.70;;
20443;SDS011;10381;53.730;10.010;2022-08-11T23:58:01;9.27;;;4.50;;
